createdAt,value
2023-03-29T00:00:08.171Z,100636.75
2023-03-29T00:02:39.065Z,100635.63
2023-03-29T00:05:06.854Z,100652.28
2023-03-29T00:07:33.788Z,100646.88
2023-03-29T00:10:01.629Z,100647.69
2023-03-29T00:12:29.042Z,100650.41
2023-03-29T00:14:56.083Z,100648.75
2023-03-29T00:17:23.131Z,100655.88
2023-03-29T00:19:50.072Z,100652.59
2023-03-29T00:22:17.004Z,100654.78
2023-03-29T00:24:43.884Z,100656.69
2023-03-29T00:27:10.670Z,100652.31
2023-03-29T00:29:37.828Z,100660.50
2023-03-29T00:32:04.987Z,100657.47
2023-03-29T00:34:31.936Z,100660.50
2023-03-29T00:36:59.031Z,100671.94
2023-03-29T00:39:28.113Z,100666.75
2023-03-29T00:41:56.278Z,100664.31
2023-03-29T00:45:00.687Z,100673.56
2023-03-29T00:47:46.846Z,100664.84
2023-03-29T00:50:16.484Z,100676.31
2023-03-29T00:52:55.034Z,100674.94
2023-03-29T00:55:24.043Z,100671.63
2023-03-29T00:57:53.722Z,100675.75
2023-03-29T01:00:24.984Z,100674.38
2023-03-29T01:02:59.760Z,100680.34
2023-03-29T01:05:33.333Z,100686.41
2023-03-29T01:08:11.785Z,100680.91
2023-03-29T01:10:47.359Z,100688.28
2023-03-29T01:13:20.965Z,100683.38
2023-03-29T01:15:48.302Z,100695.88
2023-03-29T01:18:16.839Z,100697.53
2023-03-29T01:20:51.008Z,100700.56
2023-03-29T01:23:58.412Z,100699.44
2023-03-29T01:26:55.602Z,100703.81
2023-03-29T01:29:32.789Z,100694.28
2023-03-29T01:32:14.530Z,100697.78
2023-03-29T01:34:57.777Z,100708.97
2023-03-29T01:37:32.495Z,100702.41
2023-03-29T01:40:00.819Z,100712.13
2023-03-29T01:42:46.718Z,100706.44
2023-03-29T01:45:22.784Z,100710.75
2023-03-29T01:48:07.959Z,100712.13
2023-03-29T01:50:44.269Z,100718.69
2023-03-29T01:53:36.479Z,100719.47
2023-03-29T01:56:17.365Z,100722.44
2023-03-29T01:58:48.777Z,100720.59
2023-03-29T02:01:20.391Z,100720.78
2023-03-29T02:03:50.908Z,100730.63
2023-03-29T02:06:20.852Z,100729.84
2023-03-29T02:08:48.786Z,100721.09
2023-03-29T02:11:16.046Z,100723.25
2023-03-29T02:13:43.129Z,100723.53
2023-03-29T02:16:12.585Z,100730.06
2023-03-29T02:18:43.323Z,100737.38
2023-03-29T02:21:16.544Z,100733.63
2023-03-29T02:23:46.748Z,100734.38
2023-03-29T02:26:15.405Z,100736.03
2023-03-29T02:28:43.090Z,100741.00
2023-03-29T02:31:20.328Z,100728.06
2023-03-29T02:34:04.788Z,100740.34
2023-03-29T02:36:40.544Z,100751.53
2023-03-29T02:39:10.274Z,100755.81
2023-03-29T02:41:38.991Z,100761.09
2023-03-29T02:44:08.325Z,100751.03
2023-03-29T02:46:38.197Z,100751.22
2023-03-29T02:49:05.409Z,100754.72
2023-03-29T02:51:34.309Z,100761.06
2023-03-29T02:54:10.049Z,100761.50
2023-03-29T02:56:45.483Z,100771.59
2023-03-29T02:59:12.870Z,100770.81
2023-03-29T03:01:44.946Z,100779.16
2023-03-29T03:04:13.401Z,100780.53
2023-03-29T03:06:40.842Z,100784.09
2023-03-29T03:09:10.701Z,100781.41
2023-03-29T03:11:40.440Z,100794.03
2023-03-29T03:14:08.526Z,100794.75
2023-03-29T03:16:36.257Z,100803.56
2023-03-29T03:21:49.769Z,100793.81
2023-03-29T03:24:17.801Z,100799.06
2023-03-29T03:26:46.401Z,100799.97
2023-03-29T03:29:15.619Z,100800.19
2023-03-29T03:32:02.542Z,100791.41
2023-03-29T03:34:47.122Z,100804.19
2023-03-29T03:37:15.571Z,100794.56
2023-03-29T03:39:42.455Z,100799.63
2023-03-29T03:42:10.563Z,100807.81
2023-03-29T03:44:42.029Z,100810.44
2023-03-29T03:47:37.789Z,100806.34
2023-03-29T03:50:19.350Z,100803.47
2023-03-29T03:52:46.628Z,100803.03
2023-03-29T03:55:14.413Z,100811.50
2023-03-29T03:57:48.035Z,100806.66
2023-03-29T04:00:21.418Z,100802.72
2023-03-29T04:03:07.332Z,100796.22
2023-03-29T04:05:40.270Z,100802.47
2023-03-29T04:08:08.489Z,100806.59
2023-03-29T04:10:59.934Z,100803.66
2023-03-29T04:13:34.444Z,100809.00
2023-03-29T04:16:36.945Z,100821.88
2023-03-29T04:19:21.828Z,100821.00
2023-03-29T04:21:49.641Z,100820.19
2023-03-29T04:24:17.354Z,100825.47
2023-03-29T04:26:55.601Z,100821.09
2023-03-29T04:29:24.370Z,100830.38
2023-03-29T04:31:58.267Z,100842.72
2023-03-29T04:34:44.231Z,100842.22
2023-03-29T04:37:11.586Z,100839.34
2023-03-29T04:39:44.962Z,100847.75
2023-03-29T04:42:13.077Z,100853.19
2023-03-29T04:44:43.811Z,100853.06
2023-03-29T04:47:13.434Z,100848.56
2023-03-29T04:49:51.827Z,100861.66
2023-03-29T04:52:33.425Z,100863.75
2023-03-29T04:55:02.591Z,100864.81
2023-03-29T04:57:48.243Z,100873.06
2023-03-29T05:00:21.307Z,100882.00
2023-03-29T05:03:10.161Z,100886.72
2023-03-29T05:05:41.665Z,100886.78
2023-03-29T05:08:09.626Z,100879.84
2023-03-29T05:10:54.846Z,100887.31
2023-03-29T05:13:22.226Z,100884.38
2023-03-29T05:15:49.188Z,100885.28
2023-03-29T05:18:16.233Z,100888.53
2023-03-29T05:20:43.146Z,100893.91
2023-03-29T05:23:14.707Z,100893.16
2023-03-29T05:26:00.415Z,100894.97
2023-03-29T05:28:27.283Z,100898.81
2023-03-29T05:31:02.354Z,100906.91
2023-03-29T05:33:31.026Z,100915.75
2023-03-29T05:36:04.256Z,100905.88
2023-03-29T05:38:32.910Z,100915.09
2023-03-29T05:41:01.474Z,100919.94
2023-03-29T05:43:48.730Z,100919.00
2023-03-29T05:46:16.562Z,100921.97
2023-03-29T05:48:49.201Z,100921.25
2023-03-29T05:51:19.006Z,100924.84
2023-03-29T05:53:45.959Z,100926.94
2023-03-29T05:56:16.092Z,100933.81
2023-03-29T05:58:43.579Z,100934.13
2023-03-29T06:01:14.842Z,100943.97
2023-03-29T06:03:56.461Z,100943.44
2023-03-29T06:06:29.572Z,100939.97
2023-03-29T06:08:59.193Z,100939.97
2023-03-29T06:11:35.063Z,100939.31
2023-03-29T06:14:25.004Z,100942.28
2023-03-29T06:17:05.491Z,100942.72
2023-03-29T06:19:32.569Z,100948.28
2023-03-29T06:21:59.366Z,100955.22
2023-03-29T06:24:28.860Z,100958.84
2023-03-29T06:27:02.158Z,100956.25
2023-03-29T06:29:30.412Z,100963.84
2023-03-29T06:31:57.396Z,100965.84
2023-03-29T06:34:46.902Z,100977.78
2023-03-29T06:37:32.720Z,100981.53
2023-03-29T06:40:21.475Z,100979.59
2023-03-29T06:42:49.180Z,100978.16
2023-03-29T06:45:42.792Z,100978.19
2023-03-29T06:48:19.688Z,100982.06
2023-03-29T06:50:49.075Z,100985.81
2023-03-29T06:53:17.271Z,100985.56
2023-03-29T06:55:52.784Z,100983.44
2023-03-29T06:58:38.016Z,100978.22
2023-03-29T07:01:15.700Z,100975.97
2023-03-29T07:03:49.436Z,100984.41
2023-03-29T07:06:21.126Z,100976.13
2023-03-29T07:08:50.655Z,100980.06
2023-03-29T07:11:27.758Z,100987.34
2023-03-29T07:13:57.507Z,100985.94
2023-03-29T07:16:26.000Z,100986.66
2023-03-29T07:19:19.820Z,100990.81
2023-03-29T07:21:57.155Z,100988.88
2023-03-29T07:40:24.212Z,100998.28
2023-03-29T07:42:59.034Z,101005.91
2023-03-29T07:45:30.183Z,101004.03
2023-03-29T07:48:04.970Z,100996.31
2023-03-29T07:51:08.053Z,101008.91
2023-03-29T07:53:57.682Z,101005.25
2023-03-29T07:56:44.849Z,101011.75
2023-03-29T07:59:19.163Z,101010.09
2023-03-29T08:01:53.958Z,101011.50
2023-03-29T08:04:34.865Z,101010.47
2023-03-29T08:07:21.653Z,101014.59
2023-03-29T08:10:04.074Z,101004.38
2023-03-29T08:12:47.541Z,101010.81
2023-03-29T08:15:16.727Z,101008.00
2023-03-29T08:17:44.063Z,101021.44
2023-03-29T08:20:14.116Z,101012.97
2023-03-29T08:22:43.565Z,101009.66
2023-03-29T08:25:12.227Z,101019.16
2023-03-29T08:27:44.932Z,101017.59
2023-03-29T08:30:15.005Z,101011.31
2023-03-29T08:32:42.261Z,101016.06
2023-03-29T08:35:10.231Z,101012.81
2023-03-29T08:37:43.554Z,101009.53
2023-03-29T08:40:21.663Z,100999.34
2023-03-29T08:43:18.459Z,101000.34
2023-03-29T08:46:17.655Z,101004.50
2023-03-29T08:48:52.771Z,101005.94
2023-03-29T08:51:27.879Z,101000.78
2023-03-29T08:54:16.946Z,101007.19
2023-03-29T08:57:12.297Z,101006.53
2023-03-29T08:59:44.514Z,101007.09
2023-03-29T09:02:19.302Z,101006.69
2023-03-29T09:04:52.548Z,100994.84
2023-03-29T09:07:28.216Z,101013.69
2023-03-29T09:09:56.235Z,101005.69
2023-03-29T09:13:24.221Z,101010.38
2023-03-29T09:16:14.990Z,101018.75
2023-03-29T09:19:22.493Z,101006.13
2023-03-29T09:22:14.988Z,101009.19
2023-03-29T09:25:13.738Z,101005.97
2023-03-29T09:27:47.447Z,101008.53
2023-03-29T09:30:27.935Z,101000.34
2023-03-29T09:33:06.039Z,101006.81
2023-03-29T09:35:53.949Z,101004.63
2023-03-29T09:38:22.408Z,100996.81
2023-03-29T09:41:00.414Z,101005.97
2023-03-29T09:43:47.526Z,101001.03
2023-03-29T09:46:25.431Z,100991.69
2023-03-29T09:48:55.449Z,100979.94
2023-03-29T09:51:27.165Z,101004.69
2023-03-29T09:53:57.180Z,101003.09
2023-03-29T09:56:45.639Z,100999.19
2023-03-29T09:59:16.039Z,101009.75
2023-03-29T10:01:46.708Z,101005.72
2023-03-29T10:04:16.972Z,101003.03
2023-03-29T10:06:52.651Z,101007.44
2023-03-29T10:09:22.779Z,101006.03
2023-03-29T10:12:00.181Z,101007.81
2023-03-29T10:14:30.117Z,100999.69
2023-03-29T10:16:57.753Z,100997.75
2023-03-29T10:19:34.541Z,101007.28
2023-03-29T10:22:05.054Z,100996.84
2023-03-29T10:24:31.977Z,100998.84
2023-03-29T10:27:10.669Z,101001.34
2023-03-29T10:29:41.277Z,100997.34
2023-03-29T10:32:43.535Z,100997.13
2023-03-29T10:35:24.165Z,100997.88
2023-03-29T10:37:53.476Z,101009.72
2023-03-29T10:40:30.932Z,101005.28
2023-03-29T10:43:19.686Z,101009.00
2023-03-29T10:45:52.842Z,101010.22
2023-03-29T10:48:25.683Z,101009.31
2023-03-29T10:50:53.279Z,101000.06
2023-03-29T10:53:27.117Z,100996.16
2023-03-29T10:56:13.846Z,101000.09
2023-03-29T10:58:41.232Z,100997.91
2023-03-29T11:01:18.494Z,100997.97
2023-03-29T11:03:52.986Z,100992.75
2023-03-29T11:06:33.120Z,100983.50
2023-03-29T11:09:05.716Z,100976.53
2023-03-29T11:11:41.191Z,100983.84
2023-03-29T11:14:28.220Z,100996.09
2023-03-29T11:16:57.756Z,100985.09
2023-03-29T11:19:51.891Z,100982.59
2023-03-29T11:22:44.696Z,100992.97
2023-03-29T11:25:24.732Z,100985.72
2023-03-29T11:28:10.905Z,100999.91
2023-03-29T11:30:59.085Z,100990.53
2023-03-29T11:33:56.369Z,100996.22
2023-03-29T11:36:58.675Z,100986.97
2023-03-29T11:39:43.607Z,100995.97
2023-03-29T11:42:20.366Z,100978.84
2023-03-29T11:44:54.643Z,100982.03
2023-03-29T11:47:28.047Z,100976.84
2023-03-29T11:50:10.584Z,100984.38
2023-03-29T11:52:43.695Z,100967.28
2023-03-29T11:55:19.630Z,100961.06
2023-03-29T11:57:49.408Z,100981.41
2023-03-29T12:00:22.223Z,100987.69
2023-03-29T12:02:53.485Z,100965.44
2023-03-29T12:05:24.462Z,100982.19
2023-03-29T12:08:01.676Z,100974.09
2023-03-29T12:10:43.174Z,100974.31
2023-03-29T12:13:27.237Z,100971.56
2023-03-29T12:16:08.986Z,100969.09
2023-03-29T12:18:45.558Z,100974.09
2023-03-29T12:21:22.303Z,100980.41
2023-03-29T12:23:51.985Z,100988.53
2023-03-29T12:26:57.886Z,100987.47
2023-03-29T12:29:52.213Z,100984.06
2023-03-29T12:32:38.608Z,101004.59
2023-03-29T12:36:03.185Z,101017.22
2023-03-29T12:39:18.861Z,101012.06
2023-03-29T12:42:17.160Z,101011.50
2023-03-29T12:45:00.736Z,101025.41
2023-03-29T12:47:44.234Z,101023.09
2023-03-29T12:50:33.992Z,101024.50
2023-03-29T12:53:19.081Z,101031.88
2023-03-29T12:55:55.984Z,101038.63
2023-03-29T12:58:27.880Z,101054.09
2023-03-29T13:01:24.359Z,101073.59
2023-03-29T13:03:57.808Z,101066.94
2023-03-29T13:06:31.073Z,101081.81
2023-03-29T13:09:03.679Z,101089.56
2023-03-29T13:11:37.736Z,101096.69
2023-03-29T13:14:16.891Z,101106.16
2023-03-29T13:16:44.085Z,101110.16
2023-03-29T13:19:29.572Z,101103.03
2023-03-29T13:22:42.468Z,101085.72
2023-03-29T13:25:28.021Z,101086.41
2023-03-29T13:28:25.807Z,101087.00
2023-03-29T13:30:59.685Z,101084.81
2023-03-29T13:33:49.872Z,101074.97
2023-03-29T13:37:06.860Z,101076.47
2023-03-29T13:39:40.450Z,101072.91
2023-03-29T13:42:25.426Z,101072.56
2023-03-29T13:44:53.935Z,101074.81
2023-03-29T13:47:30.161Z,101079.47
2023-03-29T13:50:05.418Z,101078.97
2023-03-29T13:52:41.216Z,101082.91
2023-03-29T13:55:13.924Z,101081.28
2023-03-29T13:58:04.044Z,101086.75
2023-03-29T14:00:47.293Z,101098.25
2023-03-29T14:03:16.630Z,101099.84
2023-03-29T14:05:57.216Z,101106.44
2023-03-29T14:08:44.347Z,101097.41
2023-03-29T14:11:24.669Z,101101.25
2023-03-29T14:13:59.784Z,101115.22
2023-03-29T14:16:33.275Z,101119.34
2023-03-29T14:19:04.191Z,101120.31
2023-03-29T14:21:31.208Z,101126.25
2023-03-29T14:24:02.426Z,101129.69
2023-03-29T14:26:34.749Z,101135.34
2023-03-29T14:29:04.468Z,101132.41
2023-03-29T14:31:37.942Z,101119.41
2023-03-29T14:34:07.916Z,101123.53
2023-03-29T14:36:36.629Z,101127.28
2023-03-29T14:39:21.518Z,101126.88
2023-03-29T14:41:51.215Z,101124.44
2023-03-29T14:44:20.046Z,101125.81
2023-03-29T14:46:49.710Z,101126.31
2023-03-29T14:49:18.407Z,101126.09
2023-03-29T14:51:47.280Z,101133.75
2023-03-29T14:54:29.210Z,101131.00
2023-03-29T14:56:56.330Z,101137.56
2023-03-29T14:59:37.151Z,101148.06
2023-03-29T15:02:04.865Z,101144.41
2023-03-29T15:04:36.012Z,101136.31
2023-03-29T15:07:05.095Z,101128.41
2023-03-29T15:09:34.769Z,101127.59
2023-03-29T15:12:03.502Z,101130.78
2023-03-29T15:14:34.020Z,101127.13
2023-03-29T15:17:16.869Z,101128.78
2023-03-29T15:19:43.837Z,101117.81
2023-03-29T15:22:11.494Z,101123.81
2023-03-29T15:24:47.616Z,101129.03
2023-03-29T15:27:19.726Z,101129.84
2023-03-29T15:29:47.957Z,101128.50
2023-03-29T15:32:22.920Z,101132.75
2023-03-29T15:35:05.122Z,101132.50
2023-03-29T15:37:32.552Z,101133.25
2023-03-29T15:39:59.769Z,101132.91
2023-03-29T15:42:26.719Z,101139.19
2023-03-29T15:44:54.949Z,101143.56
2023-03-29T15:47:22.235Z,101147.47
2023-03-29T15:49:49.368Z,101144.97
2023-03-29T15:52:16.821Z,101156.94
2023-03-29T15:54:43.990Z,101155.75
2023-03-29T15:57:15.074Z,101155.16
2023-03-29T15:59:43.310Z,101156.78
2023-03-29T16:02:16.106Z,101162.41
2023-03-29T16:04:43.390Z,101162.31
2023-03-29T16:07:14.402Z,101176.41
2023-03-29T16:09:42.078Z,101182.38
2023-03-29T16:12:10.312Z,101183.25
2023-03-29T16:14:37.350Z,101173.84
2023-03-29T16:17:04.767Z,101191.88
2023-03-29T16:19:33.863Z,101191.03
2023-03-29T16:22:03.494Z,101195.84
2023-03-29T16:24:32.211Z,101207.88
2023-03-29T16:27:00.044Z,101208.81
2023-03-29T16:29:27.507Z,101212.69
2023-03-29T16:31:55.026Z,101213.09
2023-03-29T16:34:23.102Z,101213.78
2023-03-29T16:36:50.847Z,101217.63
2023-03-29T16:39:18.443Z,101212.53
2023-03-29T16:41:48.531Z,101206.78
2023-03-29T16:44:23.946Z,101212.31
2023-03-29T16:46:53.975Z,101217.09
2023-03-29T16:49:21.733Z,101223.06
2023-03-29T16:51:48.847Z,101224.81
2023-03-29T16:54:17.390Z,101224.81
2023-03-29T16:56:44.558Z,101235.06
2023-03-29T16:59:12.147Z,101225.97
2023-03-29T17:01:40.858Z,101235.88
2023-03-29T17:04:08.442Z,101246.50
2023-03-29T17:06:36.104Z,101248.78
2023-03-29T17:09:03.441Z,101244.59
2023-03-29T17:11:30.507Z,101243.25
2023-03-29T17:13:57.409Z,101248.03
2023-03-29T17:16:24.427Z,101251.91
2023-03-29T17:18:51.395Z,101256.06
2023-03-29T17:21:18.283Z,101257.94
2023-03-29T17:23:45.072Z,101264.34
2023-03-29T17:26:12.066Z,101267.00
2023-03-29T17:28:39.250Z,101265.56
2023-03-29T17:31:08.018Z,101262.13
2023-03-29T17:33:36.348Z,101268.16
2023-03-29T17:36:05.077Z,101279.84
2023-03-29T17:38:34.233Z,101283.88
2023-03-29T17:41:02.837Z,101277.06
2023-03-29T17:43:29.806Z,101272.81
2023-03-29T17:45:56.807Z,101278.44
2023-03-29T17:48:24.645Z,101276.00
2023-03-29T17:50:52.063Z,101278.06
2023-03-29T17:53:19.206Z,101293.97
2023-03-29T17:55:46.195Z,101287.66
2023-03-29T17:58:13.178Z,101290.03
2023-03-29T18:00:40.124Z,101286.09
2023-03-29T18:03:07.259Z,101290.47
2023-03-29T18:05:35.704Z,101290.47
2023-03-29T18:08:02.987Z,101297.75
2023-03-29T18:10:29.882Z,101296.69
2023-03-29T18:12:57.003Z,101297.03
2023-03-29T18:15:23.960Z,101300.06
2023-03-29T18:17:50.930Z,101305.44
2023-03-29T18:20:17.990Z,101304.72
2023-03-29T18:22:44.947Z,101309.78
2023-03-29T18:25:11.918Z,101308.50
2023-03-29T18:27:39.959Z,101318.16
2023-03-29T18:30:08.904Z,101312.00
2023-03-29T18:32:36.720Z,101319.47
2023-03-29T18:35:05.029Z,101322.34
2023-03-29T18:37:32.190Z,101321.47
2023-03-29T18:39:59.091Z,101319.28
2023-03-29T18:42:26.210Z,101323.41
2023-03-29T18:44:53.047Z,101324.91
2023-03-29T18:47:19.996Z,101325.50
2023-03-29T18:49:47.289Z,101322.44
2023-03-29T18:52:14.262Z,101320.13
2023-03-29T18:54:41.735Z,101328.38
2023-03-29T18:57:08.784Z,101314.81
2023-03-29T18:59:38.664Z,101320.72
2023-03-29T19:02:05.637Z,101320.97
2023-03-29T19:04:32.578Z,101327.72
2023-03-29T19:07:01.460Z,101318.94
2023-03-29T19:09:28.349Z,101318.50
2023-03-29T19:11:55.414Z,101311.19
2023-03-29T19:14:25.172Z,101308.00
2023-03-29T19:16:53.152Z,101313.56
2023-03-29T19:19:21.454Z,101310.47
2023-03-29T19:21:48.980Z,101308.13
2023-03-29T19:24:16.537Z,101319.09
2023-03-29T19:26:44.510Z,101324.69
2023-03-29T19:41:53.633Z,101339.16
2023-03-29T19:44:20.511Z,101341.38
2023-03-29T19:46:47.424Z,101334.03
2023-03-29T19:49:14.427Z,101336.28
2023-03-29T19:51:42.416Z,101341.91
2023-03-29T19:54:11.471Z,101343.13
2023-03-29T19:56:38.645Z,101339.69
2023-03-29T19:59:05.711Z,101340.84
2023-03-29T20:01:32.774Z,101350.41
2023-03-29T20:03:59.845Z,101351.13
2023-03-29T20:06:27.052Z,101344.63
2023-03-29T20:08:53.953Z,101347.91
2023-03-29T20:11:24.135Z,101348.13
2023-03-29T20:13:51.198Z,101351.16
2023-03-29T20:16:19.550Z,101349.69
2023-03-29T20:18:46.705Z,101352.78
2023-03-29T20:21:16.819Z,101344.97
2023-03-29T20:23:44.422Z,101351.00
2023-03-29T20:26:12.193Z,101352.22
2023-03-29T20:28:39.555Z,101351.34
2023-03-29T20:31:10.605Z,101348.63
2023-03-29T20:33:38.113Z,101345.81
2023-03-29T20:36:06.651Z,101350.28
2023-03-29T20:38:33.838Z,101351.34
2023-03-29T20:41:01.026Z,101355.50
2023-03-29T20:43:28.019Z,101349.22
2023-03-29T20:45:55.507Z,101345.25
2023-03-29T20:48:24.381Z,101341.00
2023-03-29T20:50:51.939Z,101342.28
2023-03-29T20:53:20.749Z,101347.25
2023-03-29T20:55:48.093Z,101341.94
2023-03-29T20:58:15.907Z,101340.41
2023-03-29T21:00:43.928Z,101344.44
2023-03-29T21:03:11.336Z,101339.72
2023-03-29T21:05:39.017Z,101338.78
2023-03-29T21:08:06.114Z,101341.50
2023-03-29T21:10:33.098Z,101339.00
2023-03-29T21:13:00.444Z,101343.75
2023-03-29T21:15:30.523Z,101345.06
2023-03-29T21:17:58.145Z,101341.88
2023-03-29T21:20:25.700Z,101344.34
2023-03-29T21:22:52.619Z,101342.22
2023-03-29T21:25:19.841Z,101348.00
2023-03-29T21:27:46.859Z,101356.88
2023-03-29T21:30:14.036Z,101347.75
2023-03-29T21:32:41.377Z,101358.97
2023-03-29T21:35:09.252Z,101355.94
2023-03-29T21:37:36.184Z,101354.03
2023-03-29T21:40:08.598Z,101360.28
2023-03-29T21:42:35.877Z,101363.13
2023-03-29T21:45:03.446Z,101356.84
2023-03-29T21:47:30.670Z,101358.97
2023-03-29T21:49:57.585Z,101352.22
2023-03-29T21:52:24.531Z,101348.72
2023-03-29T21:54:51.373Z,101347.53
2023-03-29T21:57:18.330Z,101361.47
2023-03-29T21:59:45.401Z,101363.22
2023-03-29T22:02:12.422Z,101370.09
2023-03-29T22:04:39.401Z,101368.75
2023-03-29T22:07:06.913Z,101363.00
2023-03-29T22:09:35.221Z,101360.38
2023-03-29T22:12:03.607Z,101361.09
2023-03-29T22:14:34.879Z,101358.88
2023-03-29T22:17:06.347Z,101359.09
2023-03-29T22:19:39.348Z,101364.88
2023-03-29T22:22:13.795Z,101361.69
2023-03-29T22:24:42.138Z,101367.00
2023-03-29T22:27:09.739Z,101367.59
2023-03-29T22:29:36.735Z,101363.47
2023-03-29T22:32:03.956Z,101359.56
2023-03-29T22:34:30.997Z,101356.72
2023-03-29T22:36:57.785Z,101363.47
2023-03-29T22:39:24.607Z,101366.91
2023-03-29T22:41:51.601Z,101366.78
2023-03-29T22:44:18.460Z,101361.25
2023-03-29T22:46:45.642Z,101361.25
2023-03-29T22:49:12.738Z,101358.75
2023-03-29T22:51:39.618Z,101355.56
2023-03-29T22:54:06.502Z,101351.03
2023-03-29T22:56:33.398Z,101351.88
2023-03-29T22:59:00.285Z,101349.50
2023-03-29T23:01:27.282Z,101359.44
2023-03-29T23:03:54.235Z,101353.53
2023-03-29T23:06:21.201Z,101356.91
2023-03-29T23:08:48.099Z,101361.28
2023-03-29T23:11:14.982Z,101360.69
2023-03-29T23:13:41.975Z,101354.53
2023-03-29T23:16:08.871Z,101355.84
2023-03-29T23:18:37.619Z,101349.25
2023-03-29T23:21:05.954Z,101346.97
2023-03-29T23:23:33.709Z,101348.50
2023-03-29T23:29:05.505Z,101349.28
2023-03-29T23:31:33.847Z,101350.03
2023-03-29T23:34:00.846Z,101351.47
2023-03-29T23:36:31.183Z,101344.06
2023-03-29T23:38:59.734Z,101340.81
2023-03-29T23:41:30.780Z,101342.91
2023-03-29T23:43:57.961Z,101337.47
2023-03-29T23:46:25.337Z,101335.69
2023-03-29T23:49:02.431Z,101333.56
2023-03-29T23:51:30.624Z,101347.91
2023-03-29T23:53:57.606Z,101348.94
2023-03-29T23:56:24.529Z,101350.31
2023-03-29T23:58:51.837Z,101345.19
